createdAt,value
2022-10-03T00:01:42.927Z,98.4
2022-10-03T00:03:33.565Z,98.4
2022-10-03T00:05:37.481Z,98.4
2022-10-03T00:07:37.032Z,98.4
2022-10-03T00:09:44.456Z,98.6
2022-10-03T00:11:31.492Z,98.9
2022-10-03T00:13:31.243Z,98.9
2022-10-03T00:15:27.803Z,98.9
2022-10-03T00:17:29.592Z,98.9
2022-10-03T00:19:31.039Z,98.7
2022-10-03T00:21:35.853Z,98.7
2022-10-03T00:23:34.469Z,98.7
2022-10-03T00:25:35.582Z,98.7
2022-10-03T00:27:33.005Z,98.7
2022-10-03T00:29:42.385Z,99.4
2022-10-03T00:31:33.487Z,99.4
2022-10-03T00:33:36.328Z,99.4
2022-10-03T00:35:38.272Z,99.4
2022-10-03T00:37:29.463Z,99.4
2022-10-03T00:39:41.531Z,99.1
2022-10-03T00:41:39.737Z,99.1
2022-10-03T00:43:57.192Z,99.1
2022-10-03T00:45:46.731Z,99.1
2022-10-03T00:47:50.247Z,99.1
2022-10-03T00:49:44.275Z,99.3
2022-10-03T00:51:40.577Z,99.3
2022-10-03T00:53:37.413Z,99.3
2022-10-03T00:55:39.864Z,98.8
2022-10-03T00:57:40.387Z,98.8
2022-10-03T00:59:39.484Z,99.2
2022-10-03T01:01:35.528Z,99.2
2022-10-03T01:03:39.045Z,99.2
2022-10-03T01:05:37.293Z,99.4
2022-10-03T01:07:47.009Z,99.4
2022-10-03T01:09:45.151Z,99.6
2022-10-03T01:11:40.877Z,99.6
2022-10-03T01:13:36.868Z,99.6
2022-10-03T01:15:38.439Z,100
2022-10-03T01:17:34.983Z,100
2022-10-03T01:19:47.632Z,99.7
2022-10-03T01:21:36.341Z,99.7
2022-10-03T01:23:47.001Z,99.7
2022-10-03T01:25:38.539Z,99.7
2022-10-03T01:27:40.409Z,99.7
2022-10-03T01:29:40.422Z,99.7
2022-10-03T01:31:38.392Z,99.7
2022-10-03T01:33:32.198Z,99.7
2022-10-03T01:35:34.802Z,99.7
2022-10-03T01:37:37.282Z,99.7
2022-10-03T01:39:34.122Z,99.7
2022-10-03T01:41:37.459Z,99.7
2022-10-03T01:43:40.620Z,99.7
2022-10-03T01:45:35.289Z,99.7
2022-10-03T01:47:35.135Z,99.7
2022-10-03T01:49:38.336Z,99.9
2022-10-03T01:51:36.023Z,99.9
2022-10-03T01:53:40.099Z,99.9
2022-10-03T01:55:36.839Z,99.9
2022-10-03T01:57:34.785Z,99.9
2022-10-03T01:59:36.952Z,100
2022-10-03T02:01:38.748Z,100
2022-10-03T02:03:35.280Z,100
2022-10-03T02:05:41.283Z,100
2022-10-03T02:07:40.276Z,100
2022-10-03T02:09:37.361Z,100
2022-10-03T02:11:35.394Z,100
2022-10-03T02:13:43.451Z,100
2022-10-03T02:15:39.392Z,100
2022-10-03T02:17:45.135Z,100
2022-10-03T02:19:40.671Z,100
2022-10-03T02:21:32.176Z,100
2022-10-03T02:23:39.613Z,100
2022-10-03T02:25:51.100Z,100
2022-10-03T02:27:48.108Z,100
2022-10-03T02:29:50.583Z,100
2022-10-03T02:31:51.314Z,100
2022-10-03T02:33:52.877Z,100
2022-10-03T02:35:59.823Z,100
2022-10-03T02:37:54.666Z,100
2022-10-03T02:39:53.090Z,100
2022-10-03T02:42:08.111Z,100
2022-10-03T02:44:02.427Z,100
2022-10-03T02:46:04.551Z,100
2022-10-03T02:48:19.887Z,100
2022-10-03T02:49:59.936Z,100
2022-10-03T02:51:56.703Z,100
2022-10-03T02:53:56.191Z,100
2022-10-03T02:55:50.226Z,100
2022-10-03T02:57:58.465Z,100
2022-10-03T02:59:56.617Z,100
2022-10-03T03:01:58.364Z,100
2022-10-03T03:03:54.396Z,100
2022-10-03T03:05:58.027Z,100
2022-10-03T03:07:55.024Z,100
2022-10-03T03:09:52.858Z,100
2022-10-03T03:12:05.424Z,100
2022-10-03T03:13:57.358Z,100
2022-10-03T03:16:05.166Z,100
2022-10-03T03:17:45.638Z,100
2022-10-03T03:19:47.775Z,100
2022-10-03T03:21:42.789Z,100
2022-10-03T03:23:52.743Z,100
2022-10-03T03:25:49.133Z,100
2022-10-03T03:27:46.964Z,100
2022-10-03T03:29:44.694Z,100
2022-10-03T03:31:45.443Z,100
2022-10-03T03:33:47.325Z,100
2022-10-03T03:35:48.341Z,100
2022-10-03T03:37:45.470Z,100
2022-10-03T03:39:53.517Z,100
2022-10-03T03:41:55.382Z,100
2022-10-03T03:43:52.654Z,100
2022-10-03T03:45:48.477Z,100
2022-10-03T03:47:54.561Z,100
2022-10-03T03:49:55.788Z,100
2022-10-03T03:51:49.955Z,100
2022-10-03T03:53:55.511Z,100
2022-10-03T03:55:52.687Z,100
2022-10-03T03:57:53.766Z,100
2022-10-03T03:59:51.334Z,100
2022-10-03T04:01:52.889Z,100
2022-10-03T04:03:51.587Z,100
2022-10-03T04:05:56.008Z,100
2022-10-03T04:07:50.392Z,100
2022-10-03T04:09:54.850Z,100
2022-10-03T04:11:52.398Z,100
2022-10-03T04:13:57.145Z,100
2022-10-03T04:15:55.268Z,100
2022-10-03T04:17:52.092Z,100
2022-10-03T04:19:53.133Z,100
2022-10-03T04:21:58.211Z,100
2022-10-03T04:23:55.873Z,100
2022-10-03T04:25:54.310Z,100
2022-10-03T04:28:00.998Z,100
2022-10-03T04:29:43.471Z,100
2022-10-03T04:31:49.721Z,100
2022-10-03T04:33:53.460Z,100
2022-10-03T04:36:06.008Z,100
2022-10-03T04:37:46.880Z,100
2022-10-03T04:39:49.956Z,100
2022-10-03T04:41:50.524Z,100
2022-10-03T04:43:48.536Z,100
2022-10-03T04:46:01.599Z,100
2022-10-03T04:47:47.278Z,100
2022-10-03T04:49:46.947Z,100
2022-10-03T04:51:55.368Z,100
2022-10-03T04:53:52.287Z,100
2022-10-03T04:55:48.312Z,100
2022-10-03T04:57:49.407Z,100
2022-10-03T04:59:50.773Z,100
2022-10-03T05:01:49.589Z,100
2022-10-03T05:03:54.146Z,100
2022-10-03T05:05:51.128Z,100
2022-10-03T05:07:52.542Z,100
2022-10-03T05:09:51.459Z,100
2022-10-03T05:11:55.754Z,100
2022-10-03T05:13:57.583Z,100
2022-10-03T05:15:53.845Z,100
2022-10-03T05:17:52.516Z,100
2022-10-03T05:19:57.138Z,100
2022-10-03T05:21:55.116Z,100
2022-10-03T05:23:55.670Z,100
2022-10-03T05:25:53.487Z,100
2022-10-03T05:27:51.103Z,100
2022-10-03T05:29:58.622Z,100
2022-10-03T05:31:52.937Z,100
2022-10-03T05:33:53.435Z,100
2022-10-03T05:36:00.630Z,100
2022-10-03T05:38:14.897Z,100
2022-10-03T05:39:55.876Z,100
2022-10-03T05:42:05.074Z,100
2022-10-03T05:43:56.883Z,100
2022-10-03T05:45:53.839Z,100
2022-10-03T05:47:52.763Z,100
2022-10-03T05:50:10.455Z,100
2022-10-03T05:52:04.518Z,100
2022-10-03T05:54:16.698Z,100
2022-10-03T05:56:01.834Z,100
2022-10-03T05:58:09.425Z,100
2022-10-03T06:00:12.181Z,100
2022-10-03T06:02:18.617Z,100
2022-10-03T06:04:05.649Z,100
2022-10-03T06:06:13.539Z,100
2022-10-03T06:08:17.773Z,99.6
2022-10-03T06:10:18.111Z,99.6
2022-10-03T06:11:59.349Z,99.6
2022-10-03T06:14:14.888Z,99.6
2022-10-03T06:15:58.745Z,99.6
2022-10-03T06:18:00.333Z,99.4
2022-10-03T06:20:01.121Z,99.4
2022-10-03T06:22:29.034Z,99.4
2022-10-03T06:24:25.485Z,99.4
2022-10-03T06:26:12.452Z,99.4
2022-10-03T06:28:30.202Z,99.2
2022-10-03T06:30:03.808Z,99.2
2022-10-03T06:32:11.138Z,98.9
2022-10-03T06:34:11.237Z,98.9
2022-10-03T06:36:21.139Z,98.9
2022-10-03T06:38:28.515Z,98.3
2022-10-03T06:40:20.244Z,98.3
2022-10-03T06:42:26.725Z,98.3
2022-10-03T06:44:11.268Z,98.3
2022-10-03T06:46:19.289Z,98.3
2022-10-03T06:48:09.393Z,97.7
2022-10-03T06:50:18.467Z,97.7
2022-10-03T06:52:15.996Z,97.1
2022-10-03T06:54:23.958Z,96
2022-10-03T06:56:11.152Z,95.4
2022-10-03T06:58:33.619Z,95.5
2022-10-03T07:00:09.299Z,95.5
2022-10-03T07:02:18.083Z,95.5
2022-10-03T07:04:21.698Z,95.5
2022-10-03T07:06:09.872Z,95.5
2022-10-03T07:08:22.972Z,95.1
2022-10-03T07:10:13.177Z,94.9
2022-10-03T07:12:26.872Z,94.9
2022-10-03T07:14:26.533Z,94.9
2022-10-03T07:16:31.985Z,94.9
2022-10-03T07:18:23.879Z,94
2022-10-03T07:20:14.923Z,93.8
2022-10-03T07:22:30.581Z,93.8
2022-10-03T07:24:15.299Z,94.5
2022-10-03T07:26:30.681Z,94.5
2022-10-03T07:28:26.117Z,94.8
2022-10-03T07:30:09.062Z,94.8
2022-10-03T07:32:18.108Z,94.8
2022-10-03T07:34:32.274Z,94.8
2022-10-03T07:36:28.982Z,93.5
2022-10-03T07:38:30.311Z,93
2022-10-03T07:40:16.228Z,93
2022-10-03T07:42:30.256Z,93
2022-10-03T07:44:28.029Z,93
2022-10-03T07:46:24.940Z,93
2022-10-03T07:48:24.690Z,92.9
2022-10-03T07:50:23.906Z,92.9
2022-10-03T07:52:28.295Z,92.9
2022-10-03T07:54:24.598Z,92.1
2022-10-03T07:56:12.880Z,92.1
2022-10-03T07:58:23.393Z,91.4
2022-10-03T08:00:20.320Z,91.8
2022-10-03T08:02:26.289Z,91.8
2022-10-03T08:04:31.579Z,91.2
2022-10-03T08:06:23.175Z,91.2
2022-10-03T08:08:29.426Z,90.6
2022-10-03T08:10:19.173Z,91.4
2022-10-03T08:12:27.833Z,91.4
2022-10-03T08:14:17.033Z,91.4
2022-10-03T08:16:23.359Z,91.4
2022-10-03T08:18:29.300Z,92
2022-10-03T08:20:22.029Z,92
2022-10-03T08:22:14.886Z,92
2022-10-03T08:24:23.593Z,91.5
2022-10-03T08:26:17.139Z,91.5
2022-10-03T08:28:29.740Z,91.6
2022-10-03T08:30:23.199Z,91.6
2022-10-03T08:32:37.938Z,91.6
2022-10-03T08:34:30.764Z,91.6
2022-10-03T08:36:30.414Z,90.6
2022-10-03T08:38:33.635Z,89.7
2022-10-03T08:40:55.035Z,89.7
2022-10-03T08:42:43.342Z,89.7
2022-10-03T08:44:35.083Z,89.1
2022-10-03T08:46:32.272Z,88.6
2022-10-03T08:48:34.205Z,88.6
2022-10-03T08:50:35.361Z,88.6
2022-10-03T08:52:25.300Z,88
2022-10-03T08:54:22.853Z,88
2022-10-03T08:56:17.240Z,87.4
2022-10-03T08:58:34.097Z,87.4
2022-10-03T09:00:18.600Z,87.4
2022-10-03T09:03:12.599Z,87.4
2022-10-03T09:04:47.054Z,88
2022-10-03T09:06:52.818Z,88
2022-10-03T09:08:36.711Z,87.3
2022-10-03T09:10:38.196Z,87.3
2022-10-03T09:12:29.748Z,87.3
2022-10-03T09:14:43.341Z,86.6
2022-10-03T09:16:53.005Z,85.6
2022-10-03T09:18:35.355Z,86.1
2022-10-03T09:20:45.912Z,86.2
2022-10-03T09:22:31.733Z,86.2
2022-10-03T09:24:34.123Z,86.2
2022-10-03T09:26:46.756Z,86.2
2022-10-03T09:28:38.571Z,85.1
2022-10-03T09:30:22.960Z,85.1
2022-10-03T09:32:46.258Z,85.1
2022-10-03T09:34:44.412Z,85.1
2022-10-03T09:36:43.832Z,84.6
2022-10-03T09:38:45.092Z,84.6
2022-10-03T09:40:53.658Z,84.6
2022-10-03T09:42:49.340Z,84.6
2022-10-03T09:44:40.874Z,84.6
2022-10-03T09:46:37.532Z,84.6
2022-10-03T09:48:32.121Z,84.6
2022-10-03T09:50:54.795Z,84.6
2022-10-03T09:52:33.655Z,83.6
2022-10-03T09:54:37.625Z,84.5
2022-10-03T09:56:40.737Z,84.5
2022-10-03T09:58:44.411Z,84.3
2022-10-03T10:00:24.847Z,84.6
2022-10-03T10:02:55.066Z,84.6
2022-10-03T10:05:00.622Z,84.6
2022-10-03T10:06:33.985Z,85.2
2022-10-03T10:08:38.117Z,86
2022-10-03T10:10:48.968Z,86.4
2022-10-03T10:12:51.049Z,87.2
2022-10-03T10:14:39.533Z,87.8
2022-10-03T10:16:48.859Z,89
2022-10-03T10:18:39.797Z,89
2022-10-03T10:20:42.051Z,90
2022-10-03T10:22:51.304Z,90.8
2022-10-03T10:24:53.395Z,91.7
2022-10-03T10:26:54.205Z,91.7
2022-10-03T10:28:53.846Z,92.3
2022-10-03T10:30:50.389Z,93.1
2022-10-03T10:32:54.230Z,93.6
2022-10-03T10:34:58.698Z,93.6
2022-10-03T10:36:54.920Z,93.6
2022-10-03T10:39:03.593Z,93.3
2022-10-03T10:41:04.900Z,93.3
2022-10-03T10:43:00.131Z,93.3
2022-10-03T10:44:53.576Z,92.9
2022-10-03T10:47:20.290Z,92.9
2022-10-03T10:49:00.152Z,93
2022-10-03T10:50:54.810Z,93
2022-10-03T10:52:48.435Z,93
2022-10-03T10:54:54.847Z,93
2022-10-03T10:56:57.319Z,93
2022-10-03T10:59:13.210Z,92.6
2022-10-03T11:00:48.622Z,92.6
2022-10-03T11:02:57.951Z,91.9
2022-10-03T11:05:16.701Z,91.9
2022-10-03T11:07:01.727Z,91.9
2022-10-03T11:08:49.168Z,91.4
2022-10-03T11:10:35.004Z,91.2
2022-10-03T11:12:59.239Z,91.7
2022-10-03T11:14:59.067Z,92.3
2022-10-03T11:17:07.044Z,92.3
2022-10-03T11:19:01.947Z,92
2022-10-03T11:21:12.442Z,92
2022-10-03T11:23:04.492Z,92
2022-10-03T11:25:01.835Z,92
2022-10-03T11:27:07.359Z,92.8
2022-10-03T11:29:02.042Z,93
2022-10-03T11:31:05.449Z,93
2022-10-03T11:33:01.803Z,93
2022-10-03T11:34:56.125Z,92
2022-10-03T11:36:58.316Z,92
2022-10-03T11:38:39.210Z,92.5
2022-10-03T11:40:46.726Z,92.8
2022-10-03T11:42:49.747Z,92.8
2022-10-03T11:44:41.359Z,92.8
2022-10-03T11:46:50.082Z,92.2
2022-10-03T11:48:39.795Z,92.6
2022-10-03T11:50:44.402Z,92.6
2022-10-03T11:52:45.274Z,92.9
2022-10-03T11:54:39.849Z,92.9
2022-10-03T11:56:39.689Z,93.5
2022-10-03T11:58:51.507Z,94.4
2022-10-03T12:00:39.540Z,94.4
2022-10-03T12:02:51.955Z,93.6
2022-10-03T12:04:49.084Z,93.6
2022-10-03T12:06:52.569Z,93.6
2022-10-03T12:08:41.925Z,92.8
2022-10-03T12:10:46.085Z,92.1
2022-10-03T12:12:41.665Z,92.1
2022-10-03T12:14:42.028Z,91.4
2022-10-03T12:16:53.890Z,91.4
2022-10-03T12:18:53.181Z,91.4
2022-10-03T12:21:02.038Z,91.4
2022-10-03T12:22:46.669Z,91.4
2022-10-03T12:24:41.885Z,91.9
2022-10-03T12:26:49.036Z,91.9
2022-10-03T12:28:43.243Z,91.5
2022-10-03T12:30:47.781Z,91.8
2022-10-03T12:32:51.178Z,91.2
2022-10-03T12:34:43.643Z,91.2
2022-10-03T12:36:51.403Z,91.2
2022-10-03T12:38:54.393Z,90.4
2022-10-03T12:40:43.511Z,90.9
2022-10-03T12:42:47.449Z,90.9
2022-10-03T12:44:51.011Z,91.4
2022-10-03T12:46:50.464Z,91.4
2022-10-03T12:48:49.597Z,91.6
2022-10-03T12:50:46.652Z,91.6
2022-10-03T12:52:49.714Z,91.6
2022-10-03T12:54:49.139Z,91.6
2022-10-03T12:56:47.926Z,91.9
2022-10-03T12:58:51.790Z,94
2022-10-03T13:00:55.452Z,94.4
2022-10-03T13:02:57.905Z,93.8
2022-10-03T13:04:55.502Z,93.8
2022-10-03T13:07:09.217Z,95.1
2022-10-03T13:08:59.002Z,95.3
2022-10-03T13:10:48.626Z,95.8
2022-10-03T13:12:48.497Z,96.3
2022-10-03T13:15:16.003Z,96.3
2022-10-03T13:16:56.531Z,96.3
2022-10-03T13:18:50.647Z,96
2022-10-03T13:20:57.947Z,95.6
2022-10-03T13:22:52.249Z,95.6
2022-10-03T13:24:54.394Z,94.9
2022-10-03T13:26:55.836Z,94.9
2022-10-03T13:29:07.887Z,94.1
2022-10-03T13:30:52.237Z,94.1
2022-10-03T13:32:53.324Z,94.8
2022-10-03T13:34:59.966Z,94.8
2022-10-03T13:36:54.677Z,95.7
2022-10-03T13:39:10.845Z,94.2
2022-10-03T13:40:55.772Z,94.2
2022-10-03T13:42:48.205Z,93.1
2022-10-03T13:44:51.343Z,94.4
2022-10-03T13:46:55.936Z,92.8
2022-10-03T13:49:01.008Z,92.9
2022-10-03T13:50:54.050Z,92.2
2022-10-03T13:52:54.848Z,91.5
2022-10-03T13:55:12.816Z,90.9
2022-10-03T13:56:54.414Z,89.9
2022-10-03T13:58:59.453Z,90.5
2022-10-03T14:01:06.231Z,90
2022-10-03T14:02:59.648Z,90.6
2022-10-03T14:05:01.968Z,89.3
2022-10-03T14:06:56.021Z,90.5
2022-10-03T14:09:11.186Z,90.8
2022-10-03T14:11:05.253Z,90.8
2022-10-03T14:13:05.485Z,90.8
2022-10-03T14:15:06.656Z,88.7
2022-10-03T14:16:58.034Z,88.7
2022-10-03T14:18:59.858Z,89.3
2022-10-03T14:21:37.848Z,89.9
2022-10-03T14:23:01.515Z,89.9
2022-10-03T14:25:02.034Z,89.9
2022-10-03T14:26:57.962Z,89.9
2022-10-03T14:29:01.179Z,90.5
2022-10-03T14:31:07.593Z,90.5
2022-10-03T14:33:04.458Z,90.5
2022-10-03T14:35:01.572Z,89.4
2022-10-03T14:37:02.973Z,89.9
2022-10-03T14:39:07.486Z,90
2022-10-03T14:41:04.587Z,90
2022-10-03T14:43:05.686Z,88.6
2022-10-03T14:44:57.319Z,88.6
2022-10-03T14:46:57.741Z,88.1
2022-10-03T14:48:58.177Z,87.9
2022-10-03T14:51:05.323Z,87.9
2022-10-03T14:52:58.499Z,87.9
2022-10-03T14:54:56.973Z,87.9
2022-10-03T14:56:56.469Z,87.3
2022-10-03T14:58:57.194Z,86.8
2022-10-03T15:01:03.446Z,86.8
2022-10-03T15:02:55.074Z,86.7
2022-10-03T15:05:05.274Z,86.7
2022-10-03T15:06:56.853Z,86.7
2022-10-03T15:08:58.828Z,86.7
2022-10-03T15:10:56.377Z,87.3
2022-10-03T15:13:01.152Z,87.3
2022-10-03T15:15:00.771Z,87.3
2022-10-03T15:16:59.311Z,86.7
2022-10-03T15:19:06.372Z,87.1
2022-10-03T15:20:57.531Z,87.4
2022-10-03T15:22:59.265Z,87.4
2022-10-03T15:25:02.973Z,86.7
2022-10-03T15:27:02.551Z,87.2
2022-10-03T15:29:00.357Z,86.5
2022-10-03T15:31:09.048Z,87.2
2022-10-03T15:33:07.633Z,87.2
2022-10-03T15:35:00.529Z,87.2
2022-10-03T15:37:04.036Z,87.2
2022-10-03T15:39:01.737Z,87.7
2022-10-03T15:41:08.669Z,87.7
2022-10-03T15:43:05.270Z,87.7
2022-10-03T15:45:01.541Z,87.7
2022-10-03T15:47:04.874Z,86.8
2022-10-03T15:49:02.792Z,85.8
2022-10-03T15:51:00.979Z,85.8
2022-10-03T15:53:31.195Z,84.6
2022-10-03T15:55:11.526Z,84.6
2022-10-03T15:57:01.576Z,83.4
2022-10-03T15:59:04.559Z,83.4
2022-10-03T16:01:07.647Z,83.4
2022-10-03T16:03:12.436Z,83.4
2022-10-03T16:05:04.265Z,83.4
2022-10-03T16:07:07.916Z,82.8
2022-10-03T16:09:05.525Z,83
2022-10-03T16:11:08.578Z,82.2
2022-10-03T16:13:06.011Z,82.2
2022-10-03T16:15:17.240Z,83
2022-10-03T16:17:06.659Z,83.6
2022-10-03T16:19:24.122Z,83.2
2022-10-03T16:21:04.051Z,83
2022-10-03T16:23:12.909Z,83
2022-10-03T16:25:08.035Z,83.6
2022-10-03T16:27:10.626Z,83.6
2022-10-03T16:29:12.313Z,83.5
2022-10-03T16:31:05.257Z,84.2
2022-10-03T16:33:12.214Z,84.2
2022-10-03T16:35:25.585Z,85.2
2022-10-03T16:37:03.990Z,85.2
2022-10-03T16:39:04.796Z,85.8
2022-10-03T16:41:11.597Z,85.8
2022-10-03T16:43:04.358Z,86.8
2022-10-03T16:45:04.655Z,86.8
2022-10-03T16:47:04.054Z,87.3
2022-10-03T16:49:11.255Z,87.6
2022-10-03T16:51:05.973Z,87.6
2022-10-03T16:53:08.472Z,87.6
2022-10-03T16:55:06.947Z,87.6
2022-10-03T16:57:10.819Z,87.6
2022-10-03T16:59:10.292Z,87.4
2022-10-03T17:01:27.529Z,87.4
2022-10-03T17:03:15.442Z,87.4
2022-10-03T17:05:07.691Z,86.7
2022-10-03T17:07:11.511Z,86.7
2022-10-03T17:09:14.085Z,86.5
2022-10-03T17:11:07.462Z,86.1
2022-10-03T17:13:13.348Z,86.1
2022-10-03T17:15:08.219Z,86.1
2022-10-03T17:17:16.444Z,86.1
2022-10-03T17:19:16.747Z,85.9
2022-10-03T17:21:15.918Z,85.9
2022-10-03T17:23:12.474Z,85.9
2022-10-03T17:25:22.795Z,85.9
2022-10-03T17:27:15.733Z,85.9
2022-10-03T17:29:14.036Z,85.7
2022-10-03T17:31:22.099Z,86.6
2022-10-03T17:33:12.693Z,86.1
2022-10-03T17:35:14.472Z,86.1
2022-10-03T17:37:18.498Z,86.1
2022-10-03T17:39:13.397Z,86.3
2022-10-03T17:41:14.791Z,86.6
2022-10-03T17:43:16.276Z,86.6
2022-10-03T17:45:28.388Z,85.4
2022-10-03T17:47:12.123Z,85.9
2022-10-03T17:49:18.459Z,86
2022-10-03T17:51:28.923Z,85.3
2022-10-03T17:53:23.108Z,86
2022-10-03T17:55:15.082Z,85.1
2022-10-03T17:57:15.819Z,85.7
2022-10-03T17:59:13.777Z,84.6
2022-10-03T18:01:11.747Z,84.6
2022-10-03T18:03:12.988Z,84.6
2022-10-03T18:05:13.466Z,84.6
2022-10-03T18:07:12.788Z,84.6
2022-10-03T18:09:18.141Z,84.5
2022-10-03T18:11:09.162Z,84.5
2022-10-03T18:13:16.232Z,84.1
2022-10-03T18:15:24.519Z,84.1
2022-10-03T18:17:15.353Z,84.1
2022-10-03T18:19:21.994Z,83.9
2022-10-03T18:21:16.451Z,83.9
2022-10-03T18:23:31.014Z,83.9
2022-10-03T18:25:16.039Z,84.6
2022-10-03T18:27:28.757Z,84
2022-10-03T18:29:20.514Z,84.2
2022-10-03T18:31:15.690Z,84.2
2022-10-03T18:33:13.700Z,84.2
2022-10-03T18:35:14.980Z,84.2
2022-10-03T18:37:32.027Z,84.2
2022-10-03T18:39:15.132Z,83.9
2022-10-03T18:41:14.779Z,84.5
2022-10-03T18:43:31.271Z,84.5
2022-10-03T18:45:18.678Z,84.5
2022-10-03T18:47:19.104Z,84.5
2022-10-03T18:49:33.020Z,84.5
2022-10-03T18:51:14.809Z,84.5
2022-10-03T18:53:18.701Z,84.5
2022-10-03T18:55:18.161Z,85
2022-10-03T18:57:19.155Z,85
2022-10-03T18:59:20.681Z,85.2
2022-10-03T19:01:17.853Z,85.2
2022-10-03T19:03:15.926Z,85.1
2022-10-03T19:05:17.301Z,85.1
2022-10-03T19:07:17.881Z,85.1
2022-10-03T19:09:18.103Z,84.7
2022-10-03T19:11:20.720Z,84.7
2022-10-03T19:13:22.123Z,84.7
2022-10-03T19:15:19.417Z,84.7
2022-10-03T19:17:22.165Z,84.7
2022-10-03T19:19:24.498Z,85.1
2022-10-03T19:21:17.039Z,85.1
2022-10-03T19:23:16.352Z,85.1
2022-10-03T19:25:20.150Z,85.1
2022-10-03T19:27:16.910Z,85.1
2022-10-03T19:29:19.528Z,85.9
2022-10-03T19:31:19.939Z,85.9
2022-10-03T19:33:19.520Z,85.9
2022-10-03T19:35:17.029Z,85.9
2022-10-03T19:37:17.576Z,85.4
2022-10-03T19:39:16.824Z,85
2022-10-03T19:41:25.308Z,85
2022-10-03T19:43:38.856Z,85
2022-10-03T19:45:16.809Z,85
2022-10-03T19:47:17.189Z,85.9
2022-10-03T19:49:35.469Z,86
2022-10-03T19:51:21.546Z,86
2022-10-03T19:53:17.822Z,86
2022-10-03T19:55:20.487Z,85.1
2022-10-03T19:57:18.517Z,85.1
2022-10-03T19:59:17.323Z,85.9
2022-10-03T20:01:15.539Z,85.4
2022-10-03T20:03:17.436Z,85.4
2022-10-03T20:05:19.258Z,85.4
2022-10-03T20:07:18.093Z,84.9
2022-10-03T20:09:21.851Z,85.5
2022-10-03T20:11:34.054Z,85.5
2022-10-03T20:13:16.259Z,85.5
2022-10-03T20:15:22.137Z,85.5
2022-10-03T20:17:20.845Z,85.5
2022-10-03T20:19:22.404Z,84.9
2022-10-03T20:21:19.853Z,84.9
2022-10-03T20:23:20.958Z,84.3
2022-10-03T20:25:30.505Z,84.3
2022-10-03T20:27:31.323Z,84.3
2022-10-03T20:29:25.393Z,84.3
2022-10-03T20:31:22.885Z,84.3
2022-10-03T20:33:20.743Z,84.3
2022-10-03T20:35:22.500Z,84.3
2022-10-03T20:37:36.599Z,84.3
2022-10-03T20:39:22.323Z,84.3
2022-10-03T20:41:27.636Z,84.3
2022-10-03T20:43:35.664Z,84.3
2022-10-03T20:45:23.761Z,84.3
2022-10-03T20:47:36.463Z,84.3
2022-10-03T20:49:26.072Z,84.1
2022-10-03T20:51:21.007Z,84.9
2022-10-03T20:53:22.503Z,84.3
2022-10-03T20:55:24.094Z,84.3
2022-10-03T20:57:23.575Z,84.3
2022-10-03T20:59:28.420Z,83.8
2022-10-03T21:01:24.629Z,83.8
2022-10-03T21:03:30.557Z,83.8
2022-10-03T21:05:24.729Z,83.8
2022-10-03T21:07:31.601Z,83.8
2022-10-03T21:09:25.672Z,84.2
2022-10-03T21:11:23.854Z,84.2
2022-10-03T21:13:26.918Z,84.2
2022-10-03T21:15:33.836Z,84.2
2022-10-03T21:17:21.656Z,84.8
2022-10-03T21:19:25.206Z,85.1
2022-10-03T21:21:26.386Z,85.1
2022-10-03T21:23:25.857Z,85.3
2022-10-03T21:25:28.495Z,84.8
2022-10-03T21:27:23.617Z,84.8
2022-10-03T21:29:28.155Z,84.9
2022-10-03T21:31:32.869Z,84.9
2022-10-03T21:33:29.346Z,84.9
2022-10-03T21:35:27.707Z,85.3
2022-10-03T21:37:30.294Z,85.3
2022-10-03T21:39:35.049Z,85.8
2022-10-03T21:41:26.247Z,85.3
2022-10-03T21:43:41.083Z,85.3
2022-10-03T21:45:38.485Z,85.3
2022-10-03T21:47:35.442Z,85.3
2022-10-03T21:49:39.055Z,85.6
2022-10-03T21:51:28.032Z,85.6
2022-10-03T21:53:35.608Z,85.8
2022-10-03T21:55:52.952Z,85.8
2022-10-03T21:57:36.824Z,85.8
2022-10-03T21:59:40.961Z,85.8
2022-10-03T22:01:33.283Z,85.8
2022-10-03T22:03:30.423Z,85.8
2022-10-03T22:05:35.468Z,85.8
2022-10-03T22:07:36.310Z,85.8
2022-10-03T22:09:25.140Z,85.5
2022-10-03T22:11:37.025Z,85.5
2022-10-03T22:13:31.074Z,85.5
2022-10-03T22:15:35.292Z,86.3
2022-10-03T22:17:34.515Z,86.3
2022-10-03T22:19:35.946Z,86.8
2022-10-03T22:21:28.904Z,86.8
2022-10-03T22:23:39.025Z,86.8
2022-10-03T22:25:41.530Z,86.3
2022-10-03T22:27:32.997Z,86.3
2022-10-03T22:29:34.360Z,86.8
2022-10-03T22:31:34.074Z,86.8
2022-10-03T22:33:35.343Z,87.3
2022-10-03T22:35:47.562Z,87.3
2022-10-03T22:37:27.805Z,87.3
2022-10-03T22:39:28.483Z,87.3
2022-10-03T22:41:29.875Z,87.3
2022-10-03T22:43:29.117Z,87.3
2022-10-03T22:45:31.814Z,87.3
2022-10-03T22:47:31.016Z,87.3
2022-10-03T22:49:32.492Z,87.5
2022-10-03T22:51:28.726Z,87.5
2022-10-03T22:53:34.675Z,87.5
2022-10-03T22:55:31.031Z,87.5
2022-10-03T22:57:31.713Z,87.5
2022-10-03T22:59:31.693Z,87.5
2022-10-03T23:01:29.432Z,87.8
2022-10-03T23:03:32.953Z,87.8
2022-10-03T23:05:52.555Z,87.8
2022-10-03T23:07:42.580Z,87.8
2022-10-03T23:09:36.481Z,87.8
2022-10-03T23:11:32.507Z,87.8
2022-10-03T23:13:36.351Z,88.3
2022-10-03T23:15:32.740Z,88.3
2022-10-03T23:17:46.012Z,88.3
2022-10-03T23:19:43.872Z,88.5
2022-10-03T23:21:30.173Z,88.9
2022-10-03T23:23:39.211Z,88.9
2022-10-03T23:25:39.871Z,88.2
2022-10-03T23:27:51.968Z,88.8
2022-10-03T23:29:30.899Z,88.2
2022-10-03T23:31:50.148Z,88.2
2022-10-03T23:33:46.645Z,88.2
2022-10-03T23:35:38.257Z,88.2
2022-10-03T23:37:41.720Z,88.2
2022-10-03T23:39:33.298Z,88.8
2022-10-03T23:41:43.228Z,88.8
2022-10-03T23:43:37.177Z,88.8
2022-10-03T23:45:34.112Z,88.8
2022-10-03T23:47:38.455Z,88.8
2022-10-03T23:49:35.357Z,88.8
2022-10-03T23:51:35.516Z,88.8
2022-10-03T23:53:37.938Z,88.7
2022-10-03T23:55:35.883Z,88.7
2022-10-03T23:57:37.532Z,88.7
2022-10-03T23:59:36.656Z,89.3
